createdAt,value
2023-02-15T00:01:36.906Z,101212.92
2023-02-15T00:04:07.507Z,101212.19
2023-02-15T00:06:36.734Z,101214.53
2023-02-15T00:09:05.299Z,101223.99
2023-02-15T00:11:41.428Z,101219.45
2023-02-15T00:14:15.974Z,101230.38
2023-02-15T00:16:46.405Z,101228.30
2023-02-15T00:19:17.691Z,101215.76
2023-02-15T00:21:48.727Z,101224.00
2023-02-15T00:24:19.910Z,101216.37
2023-02-15T00:26:48.797Z,101216.50
2023-02-15T00:29:17.875Z,101215.03
2023-02-15T00:31:48.931Z,101209.62
2023-02-15T00:34:24.478Z,101213.67
2023-02-15T00:36:52.908Z,101220.56
2023-02-15T00:39:22.561Z,101219.70
2023-02-15T00:41:52.194Z,101219.08
2023-02-15T00:44:20.976Z,101231.13
2023-02-15T00:46:50.879Z,101230.02
2023-02-15T00:49:19.745Z,101232.84
2023-02-15T00:51:48.393Z,101236.66
2023-02-15T00:54:17.268Z,101230.27
2023-02-15T00:56:45.966Z,101232.84
2023-02-15T00:59:17.513Z,101231.50
2023-02-15T01:01:46.628Z,101238.98
2023-02-15T01:04:15.331Z,101239.11
2023-02-15T01:06:46.853Z,101239.48
2023-02-15T01:12:02.387Z,101238.98
2023-02-15T01:14:32.148Z,101239.48
2023-02-15T01:17:00.977Z,101235.92
2023-02-15T01:19:31.316Z,101233.22
2023-02-15T01:22:03.192Z,101245.50
2023-02-15T01:24:34.159Z,101235.92
2023-02-15T01:27:05.507Z,101238.98
2023-02-15T01:29:35.138Z,101236.53
2023-02-15T01:32:04.932Z,101241.08
2023-02-15T01:34:34.334Z,101243.66
2023-02-15T01:37:03.633Z,101233.34
2023-02-15T01:39:32.148Z,101231.00
2023-02-15T01:42:01.223Z,101226.70
2023-02-15T01:44:52.244Z,101236.16
2023-02-15T01:47:41.691Z,101233.83
2023-02-15T01:50:28.540Z,101234.08
2023-02-15T01:53:08.709Z,101238.38
2023-02-15T01:55:48.180Z,101245.50
2023-02-15T01:58:17.950Z,101243.91
2023-02-15T02:00:47.778Z,101249.44
2023-02-15T02:03:17.647Z,101241.45
2023-02-15T02:05:47.145Z,101248.81
2023-02-15T02:08:15.715Z,101249.31
2023-02-15T02:10:46.002Z,101250.78
2023-02-15T02:13:17.819Z,101244.02
2023-02-15T02:16:04.281Z,101250.41
2023-02-15T02:19:00.451Z,101257.54
2023-02-15T02:22:05.613Z,101254.95
2023-02-15T02:25:15.704Z,101255.20
2023-02-15T02:28:09.596Z,101254.06
2023-02-15T02:30:58.734Z,101266.02
2023-02-15T02:33:45.944Z,101255.41
2023-02-15T02:36:22.996Z,101262.16
2023-02-15T02:39:19.983Z,101255.05
2023-02-15T02:42:03.248Z,101258.11
2023-02-15T02:44:49.831Z,101258.77
2023-02-15T02:47:24.812Z,101254.95
2023-02-15T02:50:09.212Z,101260.61
2023-02-15T02:52:47.668Z,101270.64
2023-02-15T02:55:48.303Z,101263.15
2023-02-15T02:58:33.980Z,101262.78
2023-02-15T03:01:07.028Z,101266.09
2023-02-15T03:03:46.517Z,101263.63
2023-02-15T03:06:27.185Z,101262.89
2023-02-15T03:09:00.560Z,101262.28
2023-02-15T03:11:30.285Z,101267.44
2023-02-15T03:13:58.944Z,101267.92
2023-02-15T03:16:28.175Z,101265.47
2023-02-15T03:19:20.175Z,101272.22
2023-02-15T03:21:58.841Z,101271.73
2023-02-15T03:24:54.531Z,101266.58
2023-02-15T03:27:30.532Z,101275.55
2023-02-15T03:29:59.638Z,101277.38
2023-02-15T03:32:29.984Z,101277.38
2023-02-15T03:34:58.575Z,101284.75
2023-02-15T03:37:38.032Z,101277.74
2023-02-15T03:40:39.965Z,101276.27
2023-02-15T03:43:20.252Z,101280.06
2023-02-15T03:45:56.162Z,101280.91
2023-02-15T03:48:39.774Z,101279.31
2023-02-15T03:51:31.558Z,101285.45
2023-02-15T03:54:13.143Z,101288.52
2023-02-15T03:56:44.828Z,101296.14
2023-02-15T03:59:31.815Z,101297.74
2023-02-15T04:02:17.898Z,101292.22
2023-02-15T04:04:48.339Z,101288.79
2023-02-15T04:07:17.259Z,101286.45
2023-02-15T04:10:04.291Z,101292.35
2023-02-15T04:12:33.649Z,101296.41
2023-02-15T04:15:24.526Z,101297.14
2023-02-15T04:17:54.717Z,101300.22
2023-02-15T04:20:42.512Z,101303.66
2023-02-15T04:23:29.913Z,101305.50
2023-02-15T04:25:59.011Z,101307.72
2023-02-15T04:28:28.996Z,101301.08
2023-02-15T04:30:57.828Z,101313.73
2023-02-15T04:33:28.167Z,101305.63
2023-02-15T04:35:57.002Z,101303.78
2023-02-15T04:38:26.237Z,101306.23
2023-02-15T04:40:55.290Z,101305.86
2023-02-15T04:43:23.849Z,101306.34
2023-02-15T04:45:52.934Z,101311.38
2023-02-15T04:48:22.045Z,101307.21
2023-02-15T04:50:51.214Z,101306.72
2023-02-15T04:53:20.216Z,101310.17
2023-02-15T04:55:49.053Z,101314.70
2023-02-15T04:58:17.616Z,101308.81
2023-02-15T05:00:46.256Z,101311.63
2023-02-15T05:03:15.169Z,101313.97
2023-02-15T05:05:44.967Z,101319.48
2023-02-15T05:08:13.577Z,101319.23
2023-02-15T05:10:43.743Z,101325.13
2023-02-15T05:13:13.024Z,101322.31
2023-02-15T05:15:49.730Z,101339.13
2023-02-15T05:18:20.786Z,101349.05
2023-02-15T05:20:49.531Z,101348.68
2023-02-15T05:23:20.792Z,101350.03
2023-02-15T05:26:08.229Z,101354.57
2023-02-15T05:28:37.545Z,101345.61
2023-02-15T05:31:16.124Z,101353.83
2023-02-15T05:33:44.932Z,101357.88
2023-02-15T05:36:13.486Z,101352.59
2023-02-15T05:38:42.180Z,101358.37
2023-02-15T05:41:11.277Z,101353.71
2023-02-15T05:43:40.135Z,101356.90
2023-02-15T05:46:08.622Z,101353.45
2023-02-15T05:48:37.518Z,101357.88
2023-02-15T05:51:13.308Z,101363.77
2023-02-15T05:53:43.401Z,101360.70
2023-02-15T05:56:12.722Z,101370.52
2023-02-15T05:58:42.058Z,101365.48
2023-02-15T06:01:18.024Z,101381.70
2023-02-15T06:03:46.789Z,101372.59
2023-02-15T06:06:16.964Z,101383.66
2023-02-15T06:08:45.873Z,101382.42
2023-02-15T06:11:14.691Z,101384.98
2023-02-15T06:13:43.314Z,101378.31
2023-02-15T06:16:14.021Z,101381.51
2023-02-15T06:18:43.607Z,101386.91
2023-02-15T06:21:13.527Z,101390.47
2023-02-15T06:23:44.526Z,101392.08
2023-02-15T06:26:13.310Z,101385.93
2023-02-15T06:28:43.314Z,101385.70
2023-02-15T06:31:12.330Z,101391.84
2023-02-15T06:33:42.458Z,101388.42
2023-02-15T06:36:11.751Z,101392.36
2023-02-15T06:38:41.222Z,101386.59
2023-02-15T06:41:11.392Z,101386.59
2023-02-15T06:43:41.274Z,101380.81
2023-02-15T06:46:09.868Z,101381.79
2023-02-15T06:48:39.840Z,101382.02
2023-02-15T06:51:08.511Z,101381.77
2023-02-15T06:53:36.926Z,101383.45
2023-02-15T06:56:07.318Z,101386.77
2023-02-15T06:58:42.216Z,101378.52
2023-02-15T07:01:11.254Z,101379.61
2023-02-15T07:03:39.802Z,101376.68
2023-02-15T07:06:09.636Z,101379.64
2023-02-15T07:08:39.214Z,101368.09
2023-02-15T07:11:27.281Z,101369.44
2023-02-15T07:13:55.935Z,101367.60
2023-02-15T07:16:24.619Z,101373.86
2023-02-15T07:18:53.284Z,101366.25
2023-02-15T07:21:22.212Z,101371.02
2023-02-15T07:23:50.964Z,101365.73
2023-02-15T07:26:19.576Z,101368.67
2023-02-15T07:28:48.320Z,101365.67
2023-02-15T07:31:17.134Z,101358.55
2023-02-15T07:33:47.064Z,101360.19
2023-02-15T07:36:16.006Z,101364.88
2023-02-15T07:38:45.469Z,101360.11
2023-02-15T07:41:15.474Z,101357.89
2023-02-15T07:43:45.335Z,101358.27
2023-02-15T07:46:17.211Z,101362.69
2023-02-15T07:48:46.028Z,101361.20
2023-02-15T07:51:19.718Z,101363.75
2023-02-15T07:53:48.312Z,101375.91
2023-02-15T07:56:18.194Z,101373.09
2023-02-15T07:58:52.370Z,101382.20
2023-02-15T08:01:27.632Z,101387.48
2023-02-15T08:03:57.966Z,101391.84
2023-02-15T08:06:29.350Z,101391.02
2023-02-15T08:08:58.289Z,101395.34
2023-02-15T08:11:32.968Z,101411.27
2023-02-15T08:14:09.050Z,101406.44
2023-02-15T08:16:56.735Z,101403.89
2023-02-15T08:19:30.204Z,101398.56
2023-02-15T08:22:04.816Z,101399.45
2023-02-15T08:24:37.332Z,101392.73
2023-02-15T08:27:10.273Z,101402.34
2023-02-15T08:29:40.248Z,101387.69
2023-02-15T08:32:12.851Z,101392.95
2023-02-15T08:34:42.965Z,101387.36
2023-02-15T08:39:43.019Z,101394.02
2023-02-15T08:42:12.044Z,101397.12
2023-02-15T08:44:41.050Z,101399.11
2023-02-15T08:47:09.885Z,101397.41
2023-02-15T08:49:41.168Z,101398.73
2023-02-15T08:52:10.198Z,101396.70
2023-02-15T08:54:39.064Z,101398.52
2023-02-15T08:57:09.849Z,101401.72
2023-02-15T08:59:38.954Z,101405.65
2023-02-15T09:02:18.161Z,101400.52
2023-02-15T09:05:04.372Z,101409.69
2023-02-15T09:07:41.914Z,101399.37
2023-02-15T09:10:34.592Z,101397.34
2023-02-15T09:13:22.543Z,101399.25
2023-02-15T09:16:08.045Z,101404.45
2023-02-15T09:18:44.898Z,101407.34
2023-02-15T09:21:27.835Z,101412.04
2023-02-15T09:24:09.128Z,101413.91
2023-02-15T09:26:48.923Z,101403.70
2023-02-15T09:29:26.774Z,101405.44
2023-02-15T09:32:02.267Z,101403.97
2023-02-15T09:34:36.502Z,101405.22
2023-02-15T09:37:10.916Z,101411.88
2023-02-15T09:39:49.189Z,101413.45
2023-02-15T09:42:38.968Z,101403.00
2023-02-15T09:45:32.627Z,101406.82
2023-02-15T09:48:31.882Z,101418.02
2023-02-15T09:51:38.693Z,101409.05
2023-02-15T09:54:33.451Z,101408.92
2023-02-15T09:57:10.485Z,101405.10
2023-02-15T09:59:57.739Z,101402.27
2023-02-15T10:03:16.195Z,101399.45
2023-02-15T10:06:16.240Z,101394.41
2023-02-15T10:09:19.812Z,101388.63
2023-02-15T10:12:11.404Z,101400.93
2023-02-15T10:15:03.530Z,101394.66
2023-02-15T10:17:54.445Z,101395.39
2023-02-15T10:20:29.310Z,101392.19
2023-02-15T10:23:36.812Z,101391.20
2023-02-15T10:26:19.917Z,101388.63
2023-02-15T10:29:08.011Z,101387.88
2023-02-15T10:31:53.868Z,101387.14
2023-02-15T10:34:34.326Z,101387.98
2023-02-15T10:37:47.061Z,101385.52
2023-02-15T10:40:53.401Z,101386.13
2023-02-15T10:43:37.408Z,101379.61
2023-02-15T10:46:51.303Z,101369.39
2023-02-15T10:49:43.380Z,101377.39
2023-02-15T10:52:37.053Z,101386.37
2023-02-15T10:55:49.117Z,101379.83
2023-02-15T10:58:50.199Z,101383.90
2023-02-15T11:01:45.105Z,101376.63
2023-02-15T11:04:46.857Z,101372.70
2023-02-15T11:07:44.518Z,101372.45
2023-02-15T11:10:37.131Z,101372.70
2023-02-15T11:13:12.307Z,101370.72
2023-02-15T11:16:05.211Z,101371.82
2023-02-15T11:18:40.754Z,101358.41
2023-02-15T11:21:20.867Z,101358.27
2023-02-15T11:23:51.386Z,101363.80
2023-02-15T11:26:45.592Z,101367.50
2023-02-15T11:29:39.245Z,101364.79
2023-02-15T11:32:27.804Z,101367.97
2023-02-15T11:35:15.639Z,101362.42
2023-02-15T11:38:04.705Z,101360.55
2023-02-15T11:40:50.295Z,101358.45
2023-02-15T11:43:27.860Z,101357.45
2023-02-15T11:45:56.524Z,101361.27
2023-02-15T11:48:26.098Z,101351.52
2023-02-15T11:50:55.497Z,101348.19
2023-02-15T11:53:28.275Z,101361.23
2023-02-15T11:55:56.983Z,101349.54
2023-02-15T11:58:42.572Z,101343.00
2023-02-15T12:01:33.943Z,101354.20
2023-02-15T12:04:25.248Z,101348.66
2023-02-15T12:07:23.310Z,101341.02
2023-02-15T12:10:07.235Z,101335.46
2023-02-15T12:12:38.002Z,101343.20
2023-02-15T12:15:08.976Z,101331.36
2023-02-15T12:17:54.056Z,101336.03
2023-02-15T12:20:33.481Z,101335.41
2023-02-15T12:23:08.037Z,101325.78
2023-02-15T12:25:55.473Z,101329.48
2023-02-15T12:28:38.999Z,101328.09
2023-02-15T12:31:46.388Z,101334.97
2023-02-15T12:34:40.223Z,101333.22
2023-02-15T12:37:19.206Z,101327.92
2023-02-15T12:39:59.939Z,101333.35
2023-02-15T12:42:32.734Z,101326.30
2023-02-15T12:45:27.243Z,101330.11
2023-02-15T12:48:17.630Z,101311.84
2023-02-15T12:50:55.076Z,101330.83
2023-02-15T12:53:36.505Z,101335.63
2023-02-15T12:56:07.856Z,101326.00
2023-02-15T12:58:38.544Z,101325.37
2023-02-15T13:01:18.360Z,101329.80
2023-02-15T13:04:09.739Z,101325.46
2023-02-15T13:06:38.712Z,101323.48
2023-02-15T13:09:19.746Z,101327.14
2023-02-15T13:11:49.571Z,101326.88
2023-02-15T13:14:25.292Z,101333.66
2023-02-15T13:16:58.955Z,101326.73
2023-02-15T13:19:45.293Z,101326.96
2023-02-15T13:22:22.536Z,101334.97
2023-02-15T13:24:56.535Z,101335.96
2023-02-15T13:27:32.551Z,101332.12
2023-02-15T13:30:05.158Z,101337.41
2023-02-15T13:32:38.895Z,101340.35
2023-02-15T13:35:16.526Z,101341.44
2023-02-15T13:38:15.438Z,101337.86
2023-02-15T13:41:04.361Z,101345.04
2023-02-15T13:43:50.146Z,101347.12
2023-02-15T13:46:56.313Z,101333.22
2023-02-15T13:49:48.567Z,101337.88
2023-02-15T13:52:23.272Z,101336.95
2023-02-15T13:55:20.275Z,101350.45
2023-02-15T13:58:30.875Z,101352.08
2023-02-15T14:01:14.213Z,101343.53
2023-02-15T14:03:52.112Z,101356.62
2023-02-15T14:06:50.307Z,101354.52
2023-02-15T14:09:47.016Z,101348.28
2023-02-15T14:12:42.624Z,101343.67
2023-02-15T14:15:37.479Z,101343.86
2023-02-15T14:18:39.542Z,101342.50
2023-02-15T14:21:19.749Z,101349.29
2023-02-15T14:24:20.912Z,101340.69
2023-02-15T14:27:25.101Z,101348.25
2023-02-15T14:30:00.747Z,101347.26
2023-02-15T14:32:44.306Z,101349.25
2023-02-15T14:35:18.633Z,101348.03
2023-02-15T14:38:18.325Z,101344.59
2023-02-15T14:41:05.024Z,101348.30
2023-02-15T14:43:51.222Z,101350.79
2023-02-15T14:46:49.196Z,101353.52
2023-02-15T14:49:32.957Z,101350.94
2023-02-15T14:52:08.957Z,101351.70
2023-02-15T14:54:43.002Z,101350.12
2023-02-15T14:57:17.393Z,101365.31
2023-02-15T14:59:59.866Z,101367.20
2023-02-15T15:02:41.944Z,101364.80
2023-02-15T15:05:25.392Z,101366.97
2023-02-15T15:07:58.574Z,101370.09
2023-02-15T15:10:38.816Z,101372.55
2023-02-15T15:13:36.808Z,101373.91
2023-02-15T15:16:30.540Z,101377.45
2023-02-15T15:18:59.915Z,101381.19
2023-02-15T15:21:53.750Z,101383.03
2023-02-15T15:24:45.900Z,101387.03
2023-02-15T15:27:44.477Z,101386.22
2023-02-15T15:30:25.265Z,101385.72
2023-02-15T15:33:00.317Z,101387.25
2023-02-15T15:35:52.761Z,101387.53
2023-02-15T15:38:59.008Z,101400.05
2023-02-15T15:41:47.370Z,101393.77
2023-02-15T15:44:33.174Z,101389.06
2023-02-15T15:47:21.839Z,101396.66
2023-02-15T15:49:50.400Z,101396.30
2023-02-15T15:52:21.196Z,101399.37
2023-02-15T15:54:53.572Z,101396.57
2023-02-15T15:57:36.320Z,101398.33
2023-02-15T16:00:09.515Z,101396.02
2023-02-15T16:02:54.523Z,101405.42
2023-02-15T16:05:23.677Z,101397.55
2023-02-15T16:07:52.382Z,101406.31
2023-02-15T16:10:28.332Z,101403.23
2023-02-15T16:12:57.166Z,101407.20
2023-02-15T16:15:48.028Z,101410.41
2023-02-15T16:18:18.318Z,101409.45
2023-02-15T16:21:00.238Z,101417.73
2023-02-15T16:23:50.381Z,101415.14
2023-02-15T16:27:07.509Z,101414.78
2023-02-15T16:29:36.849Z,101419.47
2023-02-15T16:32:19.279Z,101421.45
2023-02-15T16:35:02.515Z,101422.09
2023-02-15T16:37:35.369Z,101416.56
2023-02-15T16:40:05.861Z,101417.19
2023-02-15T16:42:35.487Z,101420.39
2023-02-15T16:45:16.375Z,101424.09
2023-02-15T16:47:48.196Z,101425.58
2023-02-15T16:50:27.974Z,101413.88
2023-02-15T16:52:59.275Z,101422.51
2023-02-15T16:55:36.758Z,101415.73
2023-02-15T16:58:07.467Z,101414.50
2023-02-15T17:00:38.287Z,101419.17
2023-02-15T17:03:14.923Z,101425.32
2023-02-15T17:05:58.007Z,101420.52
2023-02-15T17:08:40.344Z,101421.78
2023-02-15T17:11:22.511Z,101423.89
2023-02-15T17:14:12.132Z,101423.16
2023-02-15T17:16:50.149Z,101427.22
2023-02-15T17:19:36.635Z,101431.78
2023-02-15T17:22:07.719Z,101430.92
2023-02-15T17:24:45.578Z,101433.37
2023-02-15T17:27:20.426Z,101441.14
2023-02-15T17:29:59.013Z,101442.62
2023-02-15T17:32:30.902Z,101435.61
2023-02-15T17:35:19.972Z,101432.16
2023-02-15T17:37:50.366Z,101431.80
2023-02-15T17:40:29.231Z,101425.28
2023-02-15T17:42:58.857Z,101428.25
2023-02-15T17:45:36.497Z,101426.66
2023-02-15T17:48:06.454Z,101431.09
2023-02-15T17:50:37.723Z,101428.14
2023-02-15T17:53:09.153Z,101422.84
2023-02-15T17:55:44.244Z,101422.97
2023-02-15T17:58:16.953Z,101421.25
2023-02-15T18:01:15.880Z,101420.52
2023-02-15T18:04:09.547Z,101430.00
2023-02-15T18:06:59.745Z,101428.65
2023-02-15T18:09:47.624Z,101425.94
2023-02-15T18:12:26.528Z,101428.41
2023-02-15T18:14:57.326Z,101435.44
2023-02-15T18:17:42.294Z,101430.64
2023-02-15T18:20:26.843Z,101427.33
2023-02-15T18:22:55.742Z,101437.55
2023-02-15T18:25:27.378Z,101430.66
2023-02-15T18:27:55.965Z,101432.88
2023-02-15T18:30:28.174Z,101432.88
2023-02-15T18:32:57.389Z,101431.02
2023-02-15T18:35:31.022Z,101438.30
2023-02-15T18:38:00.409Z,101438.30
2023-02-15T18:40:30.557Z,101441.50
2023-02-15T18:43:00.143Z,101443.71
2023-02-15T18:45:31.676Z,101444.33
2023-02-15T18:48:00.149Z,101446.55
2023-02-15T18:50:33.033Z,101437.69
2023-02-15T18:53:02.633Z,101440.89
2023-02-15T18:55:35.317Z,101440.65
2023-02-15T18:58:04.490Z,101433.51
2023-02-15T19:00:34.577Z,101431.78
2023-02-15T19:03:03.988Z,101438.56
2023-02-15T19:05:33.264Z,101438.19
2023-02-15T19:08:02.063Z,101434.86
2023-02-15T19:10:32.481Z,101428.71
2023-02-15T19:13:02.148Z,101434.99
2023-02-15T19:15:32.568Z,101435.61
2023-02-15T19:18:03.807Z,101433.03
2023-02-15T19:20:45.695Z,101425.39
2023-02-15T19:23:19.042Z,101428.97
2023-02-15T19:25:48.052Z,101434.02
2023-02-15T19:28:21.430Z,101422.81
2023-02-15T19:30:50.505Z,101427.00
2023-02-15T19:33:20.485Z,101426.14
2023-02-15T19:35:56.008Z,101428.48
2023-02-15T19:38:29.976Z,101429.34
2023-02-15T19:41:02.066Z,101423.94
2023-02-15T19:43:31.229Z,101422.58
2023-02-15T19:46:01.564Z,101427.63
2023-02-15T19:48:30.770Z,101431.45
2023-02-15T19:51:03.693Z,101426.62
2023-02-15T19:53:32.763Z,101430.31
2023-02-15T19:56:01.579Z,101431.30
2023-02-15T19:58:30.675Z,101432.66
2023-02-15T20:01:02.119Z,101429.95
2023-02-15T20:03:34.684Z,101427.86
2023-02-15T20:06:03.817Z,101432.53
2023-02-15T20:08:34.331Z,101430.69
2023-02-15T20:11:03.236Z,101430.08
2023-02-15T20:13:33.641Z,101431.19
2023-02-15T20:16:04.028Z,101433.28
2023-02-15T20:18:32.748Z,101426.14
2023-02-15T20:21:04.549Z,101421.71
2023-02-15T20:23:37.029Z,101424.67
2023-02-15T20:26:18.283Z,101425.28
2023-02-15T20:28:48.202Z,101426.14
2023-02-15T20:31:19.105Z,101433.41
2023-02-15T20:33:52.686Z,101427.13
2023-02-15T20:36:22.091Z,101428.36
2023-02-15T20:38:50.585Z,101426.64
2023-02-15T20:41:36.799Z,101426.77
2023-02-15T20:44:24.604Z,101430.58
2023-02-15T20:46:55.049Z,101424.43
2023-02-15T20:49:25.055Z,101422.70
2023-02-15T20:51:54.587Z,101423.20
2023-02-15T20:54:26.810Z,101418.77
2023-02-15T20:56:55.624Z,101420.98
2023-02-15T20:59:31.759Z,101428.12
2023-02-15T21:02:07.201Z,101423.20
2023-02-15T21:04:36.246Z,101421.97
2023-02-15T21:07:05.872Z,101421.11
2023-02-15T21:09:36.095Z,101423.57
2023-02-15T21:12:06.295Z,101416.68
2023-02-15T21:14:36.904Z,101417.79
2023-02-15T21:17:06.570Z,101419.76
2023-02-15T21:19:39.097Z,101424.80
2023-02-15T21:22:13.661Z,101422.71
2023-02-15T21:24:50.508Z,101423.58
2023-02-15T21:27:19.203Z,101422.22
2023-02-15T21:29:48.937Z,101424.56
2023-02-15T21:32:19.280Z,101420.13
2023-02-15T21:34:47.931Z,101425.05
2023-02-15T21:37:31.160Z,101421.11
2023-02-15T21:39:59.957Z,101425.42
2023-02-15T21:42:47.882Z,101418.28
2023-02-15T21:45:36.104Z,101428.98
2023-02-15T21:48:06.191Z,101423.57
2023-02-15T21:50:53.452Z,101424.44
2023-02-15T21:53:32.604Z,101428.00
2023-02-15T21:56:05.075Z,101433.41
2023-02-15T21:58:36.266Z,101434.15
2023-02-15T22:01:07.226Z,101426.16
2023-02-15T22:03:37.896Z,101427.13
2023-02-15T22:06:06.844Z,101427.01
2023-02-15T22:08:36.264Z,101424.67
2023-02-15T22:11:12.853Z,101425.91
2023-02-15T22:13:42.687Z,101429.47
2023-02-15T22:16:22.665Z,101433.28
2023-02-15T22:18:54.263Z,101428.61
2023-02-15T22:21:25.445Z,101426.89
2023-02-15T22:23:53.883Z,101426.03
2023-02-15T22:26:24.662Z,101422.46
2023-02-15T22:28:53.492Z,101421.72
2023-02-15T22:31:22.609Z,101427.13
2023-02-15T22:33:50.957Z,101422.09
2023-02-15T22:36:26.820Z,101423.32
2023-02-15T22:38:56.170Z,101422.83
2023-02-15T22:41:28.208Z,101425.78
2023-02-15T22:43:56.892Z,101419.02
2023-02-15T22:46:25.393Z,101421.35
2023-02-15T22:48:54.307Z,101424.67
2023-02-15T22:51:23.962Z,101420.37
2023-02-15T22:53:53.861Z,101427.13
2023-02-15T22:56:40.524Z,101424.05
2023-02-15T22:59:24.295Z,101417.38
2023-02-15T23:01:53.834Z,101416.02
2023-02-15T23:04:28.725Z,101420.58
2023-02-15T23:06:59.489Z,101418.85
2023-02-15T23:09:29.180Z,101420.94
2023-02-15T23:11:59.778Z,101423.64
2023-02-15T23:14:35.331Z,101423.77
2023-02-15T23:17:04.014Z,101411.59
2023-02-15T23:19:33.198Z,101412.45
2023-02-15T23:22:02.113Z,101419.22
2023-02-15T23:24:34.386Z,101414.17
2023-02-15T23:27:08.322Z,101412.70
2023-02-15T23:29:37.627Z,101411.34
2023-02-15T23:32:08.855Z,101411.34
2023-02-15T23:34:37.510Z,101416.64
2023-02-15T23:37:06.892Z,101418.61
2023-02-15T23:39:55.100Z,101423.03
2023-02-15T23:42:29.973Z,101427.70
2023-02-15T23:44:59.722Z,101424.25
2023-02-15T23:47:52.944Z,101424.50
2023-02-15T23:50:28.413Z,101424.98
2023-02-15T23:52:57.098Z,101428.92
2023-02-15T23:55:39.477Z,101426.22
2023-02-15T23:58:13.620Z,101430.16
